sensor_id;sensor_type;location;lat;lon;timestamp;P1;durP1;ratioP1;P2;durP2;ratioP2
13685;SDS011;6915;48.296;8.874;2023-05-10T00:18:15;1.90;;;0.10;;
13685;SDS011;6915;48.296;8.874;2023-05-10T00:20:44;1.10;;;0.10;;
13685;SDS011;6915;48.296;8.874;2023-05-10T00:23:13;0.87;;;0.10;;
13685;SDS011;6915;48.296;8.874;2023-05-10T00:25:42;0.20;;;0.10;;
13685;SDS011;6915;48.296;8.874;2023-05-10T00:28:10;0.10;;;0.10;;
13685;SDS011;6915;48.296;8.874;2023-05-10T00:30:39;1.80;;;0.20;;
13685;SDS011;6915;48.296;8.874;2023-05-10T00:33:08;2.73;;;0.20;;
13685;SDS011;6915;48.296;8.874;2023-05-10T00:35:38;1.03;;;0.20;;
13685;SDS011;6915;48.296;8.874;2023-05-10T00:38:06;0.37;;;0.37;;
13685;SDS011;6915;48.296;8.874;2023-05-10T00:40:35;1.80;;;0.20;;
13685;SDS011;6915;48.296;8.874;2023-05-10T00:43:04;0.10;;;0.10;;
13685;SDS011;6915;48.296;8.874;2023-05-10T00:45:33;0.30;;;0.30;;
13685;SDS011;6915;48.296;8.874;2023-05-10T00:48:02;0.30;;;0.20;;
13685;SDS011;6915;48.296;8.874;2023-05-10T00:50:32;1.37;;;0.20;;
13685;SDS011;6915;48.296;8.874;2023-05-10T00:53:03;1.63;;;0.20;;
13685;SDS011;6915;48.296;8.874;2023-05-10T00:55:32;0.93;;;0.10;;
13685;SDS011;6915;48.296;8.874;2023-05-10T00:58:01;0.23;;;0.10;;
13685;SDS011;6915;48.296;8.874;2023-05-10T01:00:30;0.50;;;0.37;;
13685;SDS011;6915;48.296;8.874;2023-05-10T01:03:02;0.30;;;0.20;;
13685;SDS011;6915;48.296;8.874;2023-05-10T01:05:31;0.40;;;0.17;;
13685;SDS011;6915;48.296;8.874;2023-05-10T01:07:59;0.10;;;0.10;;
13685;SDS011;6915;48.296;8.874;2023-05-10T01:10:30;0.17;;;0.17;;
13685;SDS011;6915;48.296;8.874;2023-05-10T01:12:59;0.93;;;0.10;;
13685;SDS011;6915;48.296;8.874;2023-05-10T01:15:30;0.30;;;0.20;;
13685;SDS011;6915;48.296;8.874;2023-05-10T01:17:59;1.60;;;0.20;;
13685;SDS011;6915;48.296;8.874;2023-05-10T01:20:30;1.27;;;0.10;;
13685;SDS011;6915;48.296;8.874;2023-05-10T01:23:09;0.97;;;0.20;;
13685;SDS011;6915;48.296;8.874;2023-05-10T01:28:58;0.27;;;0.20;;
13685;SDS011;6915;48.296;8.874;2023-05-10T01:34:54;1.87;;;0.20;;
13685;SDS011;6915;48.296;8.874;2023-05-10T01:37:28;0.20;;;0.20;;
13685;SDS011;6915;48.296;8.874;2023-05-10T01:40:07;0.70;;;0.20;;
13685;SDS011;6915;48.296;8.874;2023-05-10T01:42:42;1.13;;;0.30;;
13685;SDS011;6915;48.296;8.874;2023-05-10T01:45:14;0.10;;;0.10;;
13685;SDS011;6915;48.296;8.874;2023-05-10T01:47:49;0.20;;;0.20;;
13685;SDS011;6915;48.296;8.874;2023-05-10T01:50:22;0.30;;;0.10;;
13685;SDS011;6915;48.296;8.874;2023-05-10T01:52:54;1.30;;;0.17;;
13685;SDS011;6915;48.296;8.874;2023-05-10T01:55:28;0.50;;;0.30;;
13685;SDS011;6915;48.296;8.874;2023-05-10T01:58:01;0.47;;;0.40;;
13685;SDS011;6915;48.296;8.874;2023-05-10T02:00:33;0.73;;;0.20;;
13685;SDS011;6915;48.296;8.874;2023-05-10T02:03:08;0.40;;;0.30;;
13685;SDS011;6915;48.296;8.874;2023-05-10T02:05:40;1.10;;;0.30;;
13685;SDS011;6915;48.296;8.874;2023-05-10T02:08:12;0.23;;;0.23;;
13685;SDS011;6915;48.296;8.874;2023-05-10T02:10:44;2.93;;;0.40;;
13685;SDS011;6915;48.296;8.874;2023-05-10T02:13:13;0.20;;;0.20;;
13685;SDS011;6915;48.296;8.874;2023-05-10T02:15:45;0.20;;;0.20;;
13685;SDS011;6915;48.296;8.874;2023-05-10T02:18:17;0.30;;;0.30;;
13685;SDS011;6915;48.296;8.874;2023-05-10T02:20:47;0.70;;;0.30;;
13685;SDS011;6915;48.296;8.874;2023-05-10T02:23:18;0.30;;;0.30;;
13685;SDS011;6915;48.296;8.874;2023-05-10T02:25:49;0.30;;;0.30;;
13685;SDS011;6915;48.296;8.874;2023-05-10T02:28:20;0.30;;;0.30;;
13685;SDS011;6915;48.296;8.874;2023-05-10T02:30:50;0.67;;;0.30;;
13685;SDS011;6915;48.296;8.874;2023-05-10T02:33:20;1.83;;;0.20;;
13685;SDS011;6915;48.296;8.874;2023-05-10T02:35:50;0.40;;;0.30;;
13685;SDS011;6915;48.296;8.874;2023-05-10T02:38:19;0.97;;;0.40;;
13685;SDS011;6915;48.296;8.874;2023-05-10T02:40:49;0.20;;;0.20;;
13685;SDS011;6915;48.296;8.874;2023-05-10T02:43:19;1.00;;;0.30;;
13685;SDS011;6915;48.296;8.874;2023-05-10T02:45:51;0.40;;;0.20;;
13685;SDS011;6915;48.296;8.874;2023-05-10T02:48:22;0.73;;;0.33;;
13685;SDS011;6915;48.296;8.874;2023-05-10T02:50:51;1.30;;;0.40;;
13685;SDS011;6915;48.296;8.874;2023-05-10T02:53:23;1.53;;;0.40;;
13685;SDS011;6915;48.296;8.874;2023-05-10T02:55:57;0.63;;;0.20;;
13685;SDS011;6915;48.296;8.874;2023-05-10T02:58:32;0.30;;;0.20;;
13685;SDS011;6915;48.296;8.874;2023-05-10T03:01:00;0.30;;;0.30;;
13685;SDS011;6915;48.296;8.874;2023-05-10T03:03:30;1.80;;;0.30;;
13685;SDS011;6915;48.296;8.874;2023-05-10T03:05:59;0.90;;;0.20;;
13685;SDS011;6915;48.296;8.874;2023-05-10T03:08:28;1.27;;;0.30;;
13685;SDS011;6915;48.296;8.874;2023-05-10T03:11:01;1.03;;;0.30;;
13685;SDS011;6915;48.296;8.874;2023-05-10T03:13:44;0.80;;;0.20;;
13685;SDS011;6915;48.296;8.874;2023-05-10T03:16:20;2.53;;;0.40;;
13685;SDS011;6915;48.296;8.874;2023-05-10T03:18:54;0.63;;;0.37;;
13685;SDS011;6915;48.296;8.874;2023-05-10T03:21:28;0.30;;;0.30;;
13685;SDS011;6915;48.296;8.874;2023-05-10T03:23:58;0.37;;;0.30;;
13685;SDS011;6915;48.296;8.874;2023-05-10T03:26:31;1.47;;;0.40;;
13685;SDS011;6915;48.296;8.874;2023-05-10T03:29:00;0.73;;;0.30;;
13685;SDS011;6915;48.296;8.874;2023-05-10T03:31:30;0.60;;;0.30;;
13685;SDS011;6915;48.296;8.874;2023-05-10T03:34:00;0.40;;;0.40;;
13685;SDS011;6915;48.296;8.874;2023-05-10T03:36:29;1.20;;;0.47;;
13685;SDS011;6915;48.296;8.874;2023-05-10T03:38:57;0.60;;;0.30;;
13685;SDS011;6915;48.296;8.874;2023-05-10T03:41:26;0.50;;;0.37;;
13685;SDS011;6915;48.296;8.874;2023-05-10T03:43:55;0.40;;;0.40;;
13685;SDS011;6915;48.296;8.874;2023-05-10T03:46:23;0.73;;;0.40;;
13685;SDS011;6915;48.296;8.874;2023-05-10T03:48:52;0.73;;;0.60;;
13685;SDS011;6915;48.296;8.874;2023-05-10T03:51:22;0.50;;;0.50;;
13685;SDS011;6915;48.296;8.874;2023-05-10T03:53:53;0.40;;;0.40;;
13685;SDS011;6915;48.296;8.874;2023-05-10T03:56:21;0.77;;;0.57;;
13685;SDS011;6915;48.296;8.874;2023-05-10T03:58:50;0.90;;;0.50;;
13685;SDS011;6915;48.296;8.874;2023-05-10T04:01:18;0.70;;;0.70;;
13685;SDS011;6915;48.296;8.874;2023-05-10T04:03:47;1.53;;;0.63;;
13685;SDS011;6915;48.296;8.874;2023-05-10T04:06:15;1.50;;;0.43;;
13685;SDS011;6915;48.296;8.874;2023-05-10T04:08:46;1.40;;;0.60;;
13685;SDS011;6915;48.296;8.874;2023-05-10T04:11:17;0.77;;;0.47;;
13685;SDS011;6915;48.296;8.874;2023-05-10T04:13:47;0.40;;;0.40;;
13685;SDS011;6915;48.296;8.874;2023-05-10T04:16:19;1.80;;;0.70;;
13685;SDS011;6915;48.296;8.874;2023-05-10T04:18:47;0.90;;;0.70;;
13685;SDS011;6915;48.296;8.874;2023-05-10T04:21:16;1.60;;;0.60;;
13685;SDS011;6915;48.296;8.874;2023-05-10T04:23:46;1.33;;;0.60;;
13685;SDS011;6915;48.296;8.874;2023-05-10T04:26:21;0.57;;;0.50;;
13685;SDS011;6915;48.296;8.874;2023-05-10T04:28:50;0.70;;;0.70;;
13685;SDS011;6915;48.296;8.874;2023-05-10T04:31:20;2.20;;;0.60;;
13685;SDS011;6915;48.296;8.874;2023-05-10T04:33:49;1.17;;;0.50;;
13685;SDS011;6915;48.296;8.874;2023-05-10T04:36:18;1.03;;;0.70;;
13685;SDS011;6915;48.296;8.874;2023-05-10T04:38:48;1.10;;;0.60;;
13685;SDS011;6915;48.296;8.874;2023-05-10T04:41:17;0.93;;;0.73;;
13685;SDS011;6915;48.296;8.874;2023-05-10T04:43:46;1.20;;;0.60;;
13685;SDS011;6915;48.296;8.874;2023-05-10T04:46:15;0.50;;;0.50;;
13685;SDS011;6915;48.296;8.874;2023-05-10T04:48:44;0.40;;;0.40;;
13685;SDS011;6915;48.296;8.874;2023-05-10T04:51:12;0.67;;;0.67;;
13685;SDS011;6915;48.296;8.874;2023-05-10T04:53:41;0.50;;;0.50;;
13685;SDS011;6915;48.296;8.874;2023-05-10T04:56:11;1.60;;;0.70;;
13685;SDS011;6915;48.296;8.874;2023-05-10T04:58:41;1.07;;;0.63;;
13685;SDS011;6915;48.296;8.874;2023-05-10T05:01:09;1.37;;;0.80;;
13685;SDS011;6915;48.296;8.874;2023-05-10T05:03:40;2.20;;;0.60;;
13685;SDS011;6915;48.296;8.874;2023-05-10T05:06:08;0.50;;;0.50;;
13685;SDS011;6915;48.296;8.874;2023-05-10T05:08:37;1.20;;;0.70;;
13685;SDS011;6915;48.296;8.874;2023-05-10T05:11:06;0.93;;;0.60;;
13685;SDS011;6915;48.296;8.874;2023-05-10T05:13:36;2.83;;;0.70;;
13685;SDS011;6915;48.296;8.874;2023-05-10T05:16:05;0.90;;;0.63;;
13685;SDS011;6915;48.296;8.874;2023-05-10T05:18:34;2.63;;;0.77;;
13685;SDS011;6915;48.296;8.874;2023-05-10T05:21:02;1.20;;;0.63;;
13685;SDS011;6915;48.296;8.874;2023-05-10T05:23:39;1.47;;;0.80;;
13685;SDS011;6915;48.296;8.874;2023-05-10T05:26:08;1.47;;;1.00;;
13685;SDS011;6915;48.296;8.874;2023-05-10T05:28:38;1.03;;;0.60;;
13685;SDS011;6915;48.296;8.874;2023-05-10T05:31:08;0.90;;;0.87;;
13685;SDS011;6915;48.296;8.874;2023-05-10T05:33:38;0.73;;;0.70;;
13685;SDS011;6915;48.296;8.874;2023-05-10T05:36:07;0.93;;;0.70;;
13685;SDS011;6915;48.296;8.874;2023-05-10T05:38:36;0.70;;;0.63;;
13685;SDS011;6915;48.296;8.874;2023-05-10T05:41:05;0.90;;;0.60;;
13685;SDS011;6915;48.296;8.874;2023-05-10T05:43:33;2.20;;;0.60;;
13685;SDS011;6915;48.296;8.874;2023-05-10T05:46:03;2.17;;;0.70;;
13685;SDS011;6915;48.296;8.874;2023-05-10T05:48:32;0.70;;;0.70;;
13685;SDS011;6915;48.296;8.874;2023-05-10T05:51:01;2.53;;;0.77;;
13685;SDS011;6915;48.296;8.874;2023-05-10T05:53:30;1.37;;;0.60;;
13685;SDS011;6915;48.296;8.874;2023-05-10T05:55:58;0.97;;;0.80;;
13685;SDS011;6915;48.296;8.874;2023-05-10T05:58:28;0.60;;;0.60;;
13685;SDS011;6915;48.296;8.874;2023-05-10T06:00:57;0.70;;;0.70;;
13685;SDS011;6915;48.296;8.874;2023-05-10T06:03:27;1.30;;;0.63;;
13685;SDS011;6915;48.296;8.874;2023-05-10T06:05:56;1.40;;;0.77;;
13685;SDS011;6915;48.296;8.874;2023-05-10T06:08:25;0.70;;;0.50;;
13685;SDS011;6915;48.296;8.874;2023-05-10T06:10:54;1.23;;;0.50;;
13685;SDS011;6915;48.296;8.874;2023-05-10T06:13:22;0.70;;;0.70;;
13685;SDS011;6915;48.296;8.874;2023-05-10T06:15:55;1.27;;;0.77;;
13685;SDS011;6915;48.296;8.874;2023-05-10T06:18:24;0.50;;;0.50;;
13685;SDS011;6915;48.296;8.874;2023-05-10T06:20:54;0.93;;;0.80;;
13685;SDS011;6915;48.296;8.874;2023-05-10T06:23:23;2.10;;;0.60;;
13685;SDS011;6915;48.296;8.874;2023-05-10T06:25:52;1.53;;;0.60;;
13685;SDS011;6915;48.296;8.874;2023-05-10T06:28:20;0.57;;;0.57;;
13685;SDS011;6915;48.296;8.874;2023-05-10T06:30:49;3.90;;;0.70;;
13685;SDS011;6915;48.296;8.874;2023-05-10T06:33:17;0.87;;;0.60;;
13685;SDS011;6915;48.296;8.874;2023-05-10T06:35:47;1.13;;;0.60;;
13685;SDS011;6915;48.296;8.874;2023-05-10T06:38:17;0.70;;;0.60;;
13685;SDS011;6915;48.296;8.874;2023-05-10T06:40:46;0.60;;;0.60;;
13685;SDS011;6915;48.296;8.874;2023-05-10T06:43:15;1.27;;;0.60;;
13685;SDS011;6915;48.296;8.874;2023-05-10T06:45:43;2.53;;;0.60;;
13685;SDS011;6915;48.296;8.874;2023-05-10T06:48:13;0.70;;;0.60;;
13685;SDS011;6915;48.296;8.874;2023-05-10T06:50:42;1.03;;;0.73;;
13685;SDS011;6915;48.296;8.874;2023-05-10T06:53:11;1.10;;;0.70;;
13685;SDS011;6915;48.296;8.874;2023-05-10T06:55:41;1.97;;;0.97;;
13685;SDS011;6915;48.296;8.874;2023-05-10T06:58:11;1.10;;;0.77;;
13685;SDS011;6915;48.296;8.874;2023-05-10T07:00:40;2.50;;;1.00;;
13685;SDS011;6915;48.296;8.874;2023-05-10T07:03:10;1.10;;;0.70;;
13685;SDS011;6915;48.296;8.874;2023-05-10T07:05:39;2.73;;;0.70;;
13685;SDS011;6915;48.296;8.874;2023-05-10T07:08:07;0.73;;;0.70;;
13685;SDS011;6915;48.296;8.874;2023-05-10T07:10:36;2.50;;;0.70;;
13685;SDS011;6915;48.296;8.874;2023-05-10T07:13:06;2.73;;;0.73;;
13685;SDS011;6915;48.296;8.874;2023-05-10T07:15:35;1.67;;;0.50;;
13685;SDS011;6915;48.296;8.874;2023-05-10T07:18:04;1.67;;;0.60;;
13685;SDS011;6915;48.296;8.874;2023-05-10T07:20:33;0.73;;;0.50;;
13685;SDS011;6915;48.296;8.874;2023-05-10T07:23:01;1.07;;;0.73;;
13685;SDS011;6915;48.296;8.874;2023-05-10T07:25:30;0.50;;;0.50;;
13685;SDS011;6915;48.296;8.874;2023-05-10T07:27:59;0.70;;;0.57;;
13685;SDS011;6915;48.296;8.874;2023-05-10T07:30:29;0.40;;;0.40;;
13685;SDS011;6915;48.296;8.874;2023-05-10T07:32:58;0.50;;;0.50;;
13685;SDS011;6915;48.296;8.874;2023-05-10T07:35:26;0.40;;;0.40;;
13685;SDS011;6915;48.296;8.874;2023-05-10T07:37:55;1.07;;;0.60;;
13685;SDS011;6915;48.296;8.874;2023-05-10T07:40:24;0.50;;;0.50;;
13685;SDS011;6915;48.296;8.874;2023-05-10T07:42:52;1.93;;;0.50;;
13685;SDS011;6915;48.296;8.874;2023-05-10T07:45:21;0.37;;;0.37;;
13685;SDS011;6915;48.296;8.874;2023-05-10T07:47:52;0.87;;;0.60;;
13685;SDS011;6915;48.296;8.874;2023-05-10T07:50:20;0.83;;;0.67;;
13685;SDS011;6915;48.296;8.874;2023-05-10T07:52:49;0.60;;;0.33;;
13685;SDS011;6915;48.296;8.874;2023-05-10T07:55:18;0.70;;;0.40;;
13685;SDS011;6915;48.296;8.874;2023-05-10T07:57:47;1.87;;;0.73;;
13685;SDS011;6915;48.296;8.874;2023-05-10T08:00:17;0.50;;;0.50;;
13685;SDS011;6915;48.296;8.874;2023-05-10T08:02:46;1.93;;;0.37;;
13685;SDS011;6915;48.296;8.874;2023-05-10T08:05:16;1.93;;;0.60;;
13685;SDS011;6915;48.296;8.874;2023-05-10T08:07:45;2.00;;;0.30;;
13685;SDS011;6915;48.296;8.874;2023-05-10T08:10:14;1.07;;;0.37;;
13685;SDS011;6915;48.296;8.874;2023-05-10T08:12:42;0.50;;;0.40;;
13685;SDS011;6915;48.296;8.874;2023-05-10T08:15:11;0.53;;;0.30;;
13685;SDS011;6915;48.296;8.874;2023-05-10T08:17:40;0.30;;;0.30;;
13685;SDS011;6915;48.296;8.874;2023-05-10T08:20:09;0.40;;;0.40;;
13685;SDS011;6915;48.296;8.874;2023-05-10T08:22:43;1.50;;;0.63;;
13685;SDS011;6915;48.296;8.874;2023-05-10T08:25:11;2.57;;;0.53;;
13685;SDS011;6915;48.296;8.874;2023-05-10T08:27:40;1.20;;;0.50;;
13685;SDS011;6915;48.296;8.874;2023-05-10T08:30:09;0.87;;;0.30;;
13685;SDS011;6915;48.296;8.874;2023-05-10T08:32:38;0.97;;;0.20;;
13685;SDS011;6915;48.296;8.874;2023-05-10T08:35:07;0.60;;;0.20;;
13685;SDS011;6915;48.296;8.874;2023-05-10T08:37:35;1.27;;;0.30;;
13685;SDS011;6915;48.296;8.874;2023-05-10T08:40:06;0.40;;;0.30;;
13685;SDS011;6915;48.296;8.874;2023-05-10T08:42:39;0.40;;;0.23;;
13685;SDS011;6915;48.296;8.874;2023-05-10T08:45:13;2.53;;;0.40;;
13685;SDS011;6915;48.296;8.874;2023-05-10T08:47:42;1.50;;;0.30;;
13685;SDS011;6915;48.296;8.874;2023-05-10T08:50:12;0.43;;;0.30;;
13685;SDS011;6915;48.296;8.874;2023-05-10T08:52:42;0.63;;;0.40;;
13685;SDS011;6915;48.296;8.874;2023-05-10T08:55:14;0.57;;;0.30;;
13685;SDS011;6915;48.296;8.874;2023-05-10T08:57:44;1.07;;;0.30;;
13685;SDS011;6915;48.296;8.874;2023-05-10T09:00:13;1.80;;;0.30;;
13685;SDS011;6915;48.296;8.874;2023-05-10T09:02:44;0.53;;;0.33;;
13685;SDS011;6915;48.296;8.874;2023-05-10T09:05:14;0.30;;;0.13;;
13685;SDS011;6915;48.296;8.874;2023-05-10T09:07:43;0.57;;;0.30;;
13685;SDS011;6915;48.296;8.874;2023-05-10T09:10:13;0.27;;;0.27;;
13685;SDS011;6915;48.296;8.874;2023-05-10T09:12:43;0.20;;;0.20;;
13685;SDS011;6915;48.296;8.874;2023-05-10T09:15:12;0.37;;;0.30;;
13685;SDS011;6915;48.296;8.874;2023-05-10T09:17:44;0.40;;;0.40;;
13685;SDS011;6915;48.296;8.874;2023-05-10T09:20:13;0.40;;;0.40;;
13685;SDS011;6915;48.296;8.874;2023-05-10T09:22:42;1.20;;;0.33;;
13685;SDS011;6915;48.296;8.874;2023-05-10T09:25:11;0.67;;;0.40;;
13685;SDS011;6915;48.296;8.874;2023-05-10T09:27:41;0.53;;;0.27;;
13685;SDS011;6915;48.296;8.874;2023-05-10T09:30:15;1.13;;;0.30;;
13685;SDS011;6915;48.296;8.874;2023-05-10T09:32:50;7.30;;;2.47;;
13685;SDS011;6915;48.296;8.874;2023-05-10T09:35:19;1.90;;;0.50;;
13685;SDS011;6915;48.296;8.874;2023-05-10T09:37:50;0.47;;;0.40;;
13685;SDS011;6915;48.296;8.874;2023-05-10T09:40:22;1.50;;;0.33;;
13685;SDS011;6915;48.296;8.874;2023-05-10T09:42:52;0.87;;;0.37;;
13685;SDS011;6915;48.296;8.874;2023-05-10T09:45:24;0.37;;;0.37;;
13685;SDS011;6915;48.296;8.874;2023-05-10T09:47:54;1.80;;;0.50;;
13685;SDS011;6915;48.296;8.874;2023-05-10T09:50:24;0.30;;;0.30;;
13685;SDS011;6915;48.296;8.874;2023-05-10T09:52:55;0.60;;;0.30;;
13685;SDS011;6915;48.296;8.874;2023-05-10T09:55:26;0.40;;;0.40;;
13685;SDS011;6915;48.296;8.874;2023-05-10T09:58:05;0.80;;;0.40;;
13685;SDS011;6915;48.296;8.874;2023-05-10T10:00:35;0.30;;;0.30;;
13685;SDS011;6915;48.296;8.874;2023-05-10T10:03:06;0.47;;;0.43;;
13685;SDS011;6915;48.296;8.874;2023-05-10T10:05:39;0.93;;;0.37;;
13685;SDS011;6915;48.296;8.874;2023-05-10T10:08:09;1.03;;;0.50;;
13685;SDS011;6915;48.296;8.874;2023-05-10T10:10:43;2.70;;;0.40;;
13685;SDS011;6915;48.296;8.874;2023-05-10T10:13:12;1.00;;;0.43;;
13685;SDS011;6915;48.296;8.874;2023-05-10T10:15:42;1.90;;;0.50;;
13685;SDS011;6915;48.296;8.874;2023-05-10T10:18:12;1.70;;;0.57;;
13685;SDS011;6915;48.296;8.874;2023-05-10T10:20:41;1.30;;;0.57;;
13685;SDS011;6915;48.296;8.874;2023-05-10T10:23:10;0.90;;;0.50;;
13685;SDS011;6915;48.296;8.874;2023-05-10T10:25:39;1.43;;;0.47;;
13685;SDS011;6915;48.296;8.874;2023-05-10T10:28:14;2.30;;;0.70;;
13685;SDS011;6915;48.296;8.874;2023-05-10T10:30:49;0.40;;;0.40;;
13685;SDS011;6915;48.296;8.874;2023-05-10T10:36:09;1.57;;;0.47;;
13685;SDS011;6915;48.296;8.874;2023-05-10T10:38:54;1.33;;;0.37;;
13685;SDS011;6915;48.296;8.874;2023-05-10T10:41:29;3.13;;;0.53;;
13685;SDS011;6915;48.296;8.874;2023-05-10T10:50:04;2.33;;;0.57;;
13685;SDS011;6915;48.296;8.874;2023-05-10T10:52:32;1.80;;;0.47;;
13685;SDS011;6915;48.296;8.874;2023-05-10T10:55:03;2.00;;;0.63;;
13685;SDS011;6915;48.296;8.874;2023-05-10T10:57:43;1.83;;;0.60;;
13685;SDS011;6915;48.296;8.874;2023-05-10T11:00:24;3.63;;;0.50;;
13685;SDS011;6915;48.296;8.874;2023-05-10T11:02:53;1.40;;;0.57;;
13685;SDS011;6915;48.296;8.874;2023-05-10T11:08:11;3.03;;;0.60;;
13685;SDS011;6915;48.296;8.874;2023-05-10T11:10:53;2.20;;;0.40;;
13685;SDS011;6915;48.296;8.874;2023-05-10T11:13:30;1.60;;;0.40;;
13685;SDS011;6915;48.296;8.874;2023-05-10T11:16:10;1.83;;;0.67;;
13685;SDS011;6915;48.296;8.874;2023-05-10T11:18:41;0.73;;;0.60;;
13685;SDS011;6915;48.296;8.874;2023-05-10T11:21:19;1.77;;;0.67;;
13685;SDS011;6915;48.296;8.874;2023-05-10T11:23:48;4.40;;;0.57;;
13685;SDS011;6915;48.296;8.874;2023-05-10T11:26:21;1.13;;;0.70;;
13685;SDS011;6915;48.296;8.874;2023-05-10T11:28:51;1.27;;;0.40;;
13685;SDS011;6915;48.296;8.874;2023-05-10T11:31:28;1.77;;;0.53;;
13685;SDS011;6915;48.296;8.874;2023-05-10T11:33:58;1.87;;;0.70;;
13685;SDS011;6915;48.296;8.874;2023-05-10T11:36:28;1.53;;;0.70;;
13685;SDS011;6915;48.296;8.874;2023-05-10T11:38:59;2.83;;;0.90;;
13685;SDS011;6915;48.296;8.874;2023-05-10T11:41:29;1.27;;;0.70;;
13685;SDS011;6915;48.296;8.874;2023-05-10T11:43:58;2.70;;;0.60;;
13685;SDS011;6915;48.296;8.874;2023-05-10T11:46:29;1.23;;;0.70;;
13685;SDS011;6915;48.296;8.874;2023-05-10T11:48:58;1.57;;;0.70;;
13685;SDS011;6915;48.296;8.874;2023-05-10T11:51:29;1.53;;;1.00;;
13685;SDS011;6915;48.296;8.874;2023-05-10T11:54:01;1.80;;;0.80;;
13685;SDS011;6915;48.296;8.874;2023-05-10T11:56:34;3.27;;;0.60;;
13685;SDS011;6915;48.296;8.874;2023-05-10T11:59:04;1.57;;;0.90;;
13685;SDS011;6915;48.296;8.874;2023-05-10T12:01:34;1.30;;;0.77;;
13685;SDS011;6915;48.296;8.874;2023-05-10T12:04:03;2.47;;;0.80;;
13685;SDS011;6915;48.296;8.874;2023-05-10T12:06:34;2.10;;;0.60;;
13685;SDS011;6915;48.296;8.874;2023-05-10T12:09:06;1.47;;;0.70;;
13685;SDS011;6915;48.296;8.874;2023-05-10T12:11:36;2.57;;;0.63;;
13685;SDS011;6915;48.296;8.874;2023-05-10T12:14:06;2.03;;;0.70;;
13685;SDS011;6915;48.296;8.874;2023-05-10T12:16:38;0.70;;;0.50;;
13685;SDS011;6915;48.296;8.874;2023-05-10T12:19:09;2.00;;;0.50;;
13685;SDS011;6915;48.296;8.874;2023-05-10T12:21:37;2.63;;;0.80;;
13685;SDS011;6915;48.296;8.874;2023-05-10T12:24:06;1.00;;;0.70;;
13685;SDS011;6915;48.296;8.874;2023-05-10T12:26:36;1.47;;;0.80;;
13685;SDS011;6915;48.296;8.874;2023-05-10T12:29:11;3.10;;;0.80;;
13685;SDS011;6915;48.296;8.874;2023-05-10T14:00:09;3.72;;;1.80;;
13685;SDS011;6915;48.296;8.874;2023-05-10T14:02:40;1.07;;;0.70;;
13685;SDS011;6915;48.296;8.874;2023-05-10T14:05:09;2.27;;;0.97;;
13685;SDS011;6915;48.296;8.874;2023-05-10T14:07:37;1.93;;;0.70;;
13685;SDS011;6915;48.296;8.874;2023-05-10T14:10:06;4.53;;;1.17;;
13685;SDS011;6915;48.296;8.874;2023-05-10T14:12:35;2.17;;;0.70;;
13685;SDS011;6915;48.296;8.874;2023-05-10T14:15:04;2.30;;;0.70;;
13685;SDS011;6915;48.296;8.874;2023-05-10T14:17:37;4.77;;;0.80;;
13685;SDS011;6915;48.296;8.874;2023-05-10T14:20:07;1.93;;;0.60;;
13685;SDS011;6915;48.296;8.874;2023-05-10T14:22:36;4.20;;;0.90;;
13685;SDS011;6915;48.296;8.874;2023-05-10T14:25:05;3.47;;;0.80;;
13685;SDS011;6915;48.296;8.874;2023-05-10T14:27:34;1.80;;;0.90;;
13685;SDS011;6915;48.296;8.874;2023-05-10T14:30:03;0.90;;;0.77;;
13685;SDS011;6915;48.296;8.874;2023-05-10T14:32:31;2.60;;;0.53;;
13685;SDS011;6915;48.296;8.874;2023-05-10T14:35:03;1.37;;;0.70;;
13685;SDS011;6915;48.296;8.874;2023-05-10T14:37:32;2.23;;;0.70;;
13685;SDS011;6915;48.296;8.874;2023-05-10T14:40:01;1.60;;;0.80;;
13685;SDS011;6915;48.296;8.874;2023-05-10T14:42:31;0.90;;;0.60;;
13685;SDS011;6915;48.296;8.874;2023-05-10T14:45:00;1.87;;;0.60;;
13685;SDS011;6915;48.296;8.874;2023-05-10T14:47:30;2.53;;;0.50;;
13685;SDS011;6915;48.296;8.874;2023-05-10T14:50:05;2.57;;;0.63;;
13685;SDS011;6915;48.296;8.874;2023-05-10T14:52:33;4.57;;;0.70;;
13685;SDS011;6915;48.296;8.874;2023-05-10T14:55:02;1.03;;;0.50;;
13685;SDS011;6915;48.296;8.874;2023-05-10T14:57:31;2.17;;;0.53;;
13685;SDS011;6915;48.296;8.874;2023-05-10T15:00:00;3.07;;;0.80;;
13685;SDS011;6915;48.296;8.874;2023-05-10T15:02:30;2.13;;;0.80;;
13685;SDS011;6915;48.296;8.874;2023-05-10T15:04:59;1.47;;;1.07;;
13685;SDS011;6915;48.296;8.874;2023-05-10T15:07:29;1.23;;;0.60;;
13685;SDS011;6915;48.296;8.874;2023-05-10T15:09:58;0.60;;;0.40;;
13685;SDS011;6915;48.296;8.874;2023-05-10T15:12:27;1.23;;;0.40;;
13685;SDS011;6915;48.296;8.874;2023-05-10T15:14:55;0.50;;;0.40;;
13685;SDS011;6915;48.296;8.874;2023-05-10T15:17:24;1.70;;;0.50;;
13685;SDS011;6915;48.296;8.874;2023-05-10T15:19:55;1.37;;;0.30;;
13685;SDS011;6915;48.296;8.874;2023-05-10T15:22:23;1.90;;;0.60;;
13685;SDS011;6915;48.296;8.874;2023-05-10T15:24:54;0.60;;;0.30;;
13685;SDS011;6915;48.296;8.874;2023-05-10T15:27:23;1.10;;;0.60;;
13685;SDS011;6915;48.296;8.874;2023-05-10T15:29:52;3.13;;;0.50;;
13685;SDS011;6915;48.296;8.874;2023-05-10T15:32:20;1.77;;;0.70;;
13685;SDS011;6915;48.296;8.874;2023-05-10T15:34:49;0.73;;;0.60;;
13685;SDS011;6915;48.296;8.874;2023-05-10T15:37:18;0.77;;;0.40;;
13685;SDS011;6915;48.296;8.874;2023-05-10T15:39:48;2.17;;;0.80;;
13685;SDS011;6915;48.296;8.874;2023-05-10T15:42:18;2.73;;;0.70;;
13685;SDS011;6915;48.296;8.874;2023-05-10T15:44:46;4.87;;;1.00;;
13685;SDS011;6915;48.296;8.874;2023-05-10T15:47:15;1.37;;;0.60;;
13685;SDS011;6915;48.296;8.874;2023-05-10T15:49:44;1.93;;;0.50;;
13685;SDS011;6915;48.296;8.874;2023-05-10T15:52:12;2.87;;;0.60;;
13685;SDS011;6915;48.296;8.874;2023-05-10T15:54:42;0.90;;;0.50;;
13685;SDS011;6915;48.296;8.874;2023-05-10T15:57:11;1.47;;;0.50;;
13685;SDS011;6915;48.296;8.874;2023-05-10T15:59:41;2.87;;;0.77;;
13685;SDS011;6915;48.296;8.874;2023-05-10T16:02:10;1.90;;;0.70;;
13685;SDS011;6915;48.296;8.874;2023-05-10T16:04:38;0.97;;;0.60;;
13685;SDS011;6915;48.296;8.874;2023-05-10T16:07:08;0.80;;;0.70;;
13685;SDS011;6915;48.296;8.874;2023-05-10T16:09:37;0.50;;;0.50;;
13685;SDS011;6915;48.296;8.874;2023-05-10T16:12:06;3.93;;;0.70;;
13685;SDS011;6915;48.296;8.874;2023-05-10T16:14:35;2.07;;;0.70;;
13685;SDS011;6915;48.296;8.874;2023-05-10T16:17:06;2.47;;;0.50;;
13685;SDS011;6915;48.296;8.874;2023-05-10T16:19:35;4.70;;;0.87;;
13685;SDS011;6915;48.296;8.874;2023-05-10T16:22:05;2.23;;;0.50;;
13685;SDS011;6915;48.296;8.874;2023-05-10T16:24:33;2.77;;;0.60;;
13685;SDS011;6915;48.296;8.874;2023-05-10T16:27:02;1.80;;;0.60;;
13685;SDS011;6915;48.296;8.874;2023-05-10T16:29:31;0.80;;;0.40;;
13685;SDS011;6915;48.296;8.874;2023-05-10T16:31:59;0.67;;;0.40;;
13685;SDS011;6915;48.296;8.874;2023-05-10T16:34:29;0.73;;;0.50;;
13685;SDS011;6915;48.296;8.874;2023-05-10T16:36:58;0.70;;;0.70;;
13685;SDS011;6915;48.296;8.874;2023-05-10T16:39:27;0.67;;;0.40;;
13685;SDS011;6915;48.296;8.874;2023-05-10T16:41:55;1.97;;;0.70;;
13685;SDS011;6915;48.296;8.874;2023-05-10T16:44:25;1.23;;;0.50;;
13685;SDS011;6915;48.296;8.874;2023-05-10T16:46:53;2.13;;;1.43;;
13685;SDS011;6915;48.296;8.874;2023-05-10T16:49:22;0.70;;;0.70;;
13685;SDS011;6915;48.296;8.874;2023-05-10T16:51:53;0.37;;;0.37;;
13685;SDS011;6915;48.296;8.874;2023-05-10T16:54:21;8.33;;;5.53;;
13685;SDS011;6915;48.296;8.874;2023-05-10T16:56:50;18.50;;;12.80;;
13685;SDS011;6915;48.296;8.874;2023-05-10T16:59:19;13.80;;;8.73;;
13685;SDS011;6915;48.296;8.874;2023-05-10T17:01:48;0.47;;;0.43;;
13685;SDS011;6915;48.296;8.874;2023-05-10T17:04:17;4.30;;;2.10;;
13685;SDS011;6915;48.296;8.874;2023-05-10T17:06:46;1.70;;;0.60;;
13685;SDS011;6915;48.296;8.874;2023-05-10T17:09:16;0.50;;;0.50;;
13685;SDS011;6915;48.296;8.874;2023-05-10T17:11:45;4.03;;;1.90;;
13685;SDS011;6915;48.296;8.874;2023-05-10T17:14:13;8.53;;;4.50;;
13685;SDS011;6915;48.296;8.874;2023-05-10T17:16:42;3.87;;;3.03;;
13685;SDS011;6915;48.296;8.874;2023-05-10T17:19:12;2.83;;;1.20;;
13685;SDS011;6915;48.296;8.874;2023-05-10T17:21:40;2.43;;;1.70;;